South Dennis, Massachusetts
Current Conditions -  °F | °C
As of 8:56 AM on Sunday 25 Jan 2015 (Local Time) from KHYA Reporting Station
Clear Clear  
Wind Chill: 26°   Ceiling: Unl
Heat Index: 35°   Visibility: 10mi
Dew Point: 27°   Wind: 15mph
Humidity: 72%   Direction: 260°W
Pressure: 29.56"   Gusts: 22mph
Location:  41.7°N, 70.16°W
Report Text: KHYA 251356Z 26013G19KT 10SM CLR 02/M03 A2956 RMK AO2 SLP011 T00171028
Loading
Personal Weather Stations






























Interactive Weather Map New forecast layout! Learn more

10-Day Weather Forecast

Advertisements
Track Severe Weather on mobile